Time;durP1;ratioP1;P1;durP2;ratioP2;P2;SDS_P1;SDS_P2;PMS_P1;PMS_P2;Temp;Humidity;BMP_temperature;BMP_pressure;BME280_temperature;BME280_humidity;BME280_pressure;Samples;Min_cycle;Max_cycle;Signal;HPM_P1;HPM_P2
2023/08/02 00:00:36;;;;;;;10.48;3.40;;;;;;;;;;5051513;28;20516;-79
2023/08/02 00:03:03;;;;;;;10.95;2.85;;;;;;;;;;5047217;28;20059;-80
2023/08/02 00:05:29;;;;;;;13.52;2.40;;;;;;;;;;5050473;28;20131;-81
2023/08/02 00:07:55;;;;;;;13.32;2.75;;;;;;;;;;5047917;28;20045;-80
2023/08/02 00:10:21;;;;;;;6.97;2.75;;;;;;;;;;5046359;28;20126;-81
2023/08/02 00:12:51;;;;;;;10.57;3.05;;;14.70;99.90;;;;;;5047687;28;20162;-80
2023/08/02 00:15:18;;;;;;;8.02;2.90;;;;;;;;;;5050966;28;20067;-80
2023/08/02 00:17:44;;;;;;;11.82;3.22;;;;;;;;;;5050237;28;20064;-80
2023/08/02 00:20:11;;;;;;;11.70;4.50;;;;;;;;;;5065655;28;20052;-80
2023/08/02 00:22:37;;;;;;;8.23;3.10;;;;;;;;;;5048582;28;20052;-80
2023/08/02 00:25:03;;;;;;;10.10;3.30;;;14.70;99.90;;;;;;5040422;28;20036;-81
2023/08/02 00:27:29;;;;;;;8.60;3.80;;;;;;;;;;5064952;28;20054;-82
2023/08/02 00:29:55;;;;;;;10.55;4.03;;;;;;;;;;5047197;28;20131;-82
2023/08/02 00:32:21;;;;;;;11.85;4.55;;;;;;;;;;5045928;28;20056;-82
2023/08/02 00:34:54;;;;;;;9.63;3.97;;;;;;;;;;5046260;28;20549;-80
2023/08/02 00:37:20;;;;;;;13.35;5.20;;;;;;;;;;5043132;28;20959;-79
2023/08/02 00:39:50;;;;;;;14.10;5.10;;;14.60;99.90;;;;;;5062418;28;20127;-79
2023/08/02 00:42:17;;;;;;;10.80;5.35;;;;;;;;;;5048728;28;20048;-81
2023/08/02 00:44:43;;;;;;;9.45;5.35;;;;;;;;;;5050028;28;20064;-80
2023/08/02 00:47:09;;;;;;;18.42;5.40;;;;;;;;;;5054449;28;20103;-79
2023/08/02 00:49:35;;;;;;;10.35;5.38;;;;;;;;;;5060740;28;20048;-82
2023/08/02 00:52:01;;;;;;;12.65;5.20;;;;;;;;;;5065527;28;20751;-81
2023/08/02 00:54:28;;;;;;;15.32;5.28;;;;;;;;;;5079532;28;20112;-80
2023/08/02 00:56:55;;;;;;;12.55;5.35;;;14.50;99.90;;;;;;5055005;28;20076;-83
2023/08/02 00:59:21;;;;;;;9.45;5.47;;;;;;;;;;5050650;28;20052;-81
2023/08/02 01:01:47;;;;;;;14.18;4.65;;;;;;;;;;5065090;28;20052;-80
2023/08/02 01:04:15;;;;;;;11.85;5.90;;;;;;;;;;5047147;28;20052;-81
2023/08/02 01:07:04;;;;;;;11.88;4.88;;;14.50;99.90;;;;;;5046539;28;20045;-81
2023/08/02 01:10:04;;;;;;;18.83;4.97;;;14.50;99.90;;;;;;5063231;28;20082;-80
2023/08/02 01:12:31;;;;;;;14.82;5.35;;;14.40;99.90;;;;;;5062410;28;20052;-79
2023/08/02 01:15:02;;;;;;;11.40;5.50;;;14.50;99.90;;;;;;5046527;28;20519;-80
2023/08/02 01:17:29;;;;;;;14.73;6.05;;;;;;;;;;5059527;28;20553;-81
2023/08/02 01:19:55;;;;;;;10.32;5.53;;;;;;;;;;5045157;28;20070;-79
2023/08/02 01:22:21;;;;;;;12.18;5.82;;;;;;;;;;5058631;28;20420;-80
2023/08/02 01:24:47;;;;;;;17.52;5.50;;;;;;;;;;5044897;28;20133;-81
2023/08/02 01:27:20;;;;;;;11.68;5.82;;;14.70;99.90;;;;;;5044289;28;20512;-79
2023/08/02 01:29:49;;;;;;;12.43;5.05;;;14.60;99.90;;;;;;5045644;28;20056;-79
2023/08/02 01:32:17;;;;;;;12.77;5.43;;;;;;;;;;5045566;28;20193;-80
2023/08/02 01:34:44;;;;;;;13.93;6.05;;;;;;;;;;5041704;28;20070;-80
2023/08/02 01:37:10;;;;;;;15.07;5.90;;;;;;;;;;5065365;28;20048;-80
2023/08/02 01:39:36;;;;;;;12.57;5.82;;;;;;;;;;5048630;28;20100;-82
2023/08/02 01:42:02;;;;;;;12.32;5.35;;;;;;;;;;5046238;28;20780;-79
2023/08/02 01:44:29;;;;;;;9.75;5.28;;;;;;;;;;5051213;28;20055;-80
2023/08/02 01:46:55;;;;;;;11.82;5.90;;;;;;;;;;5046831;28;20048;-79
2023/08/02 01:49:21;;;;;;;13.38;6.53;;;;;;;;;;5052579;28;20044;-81
2023/08/02 01:51:48;;;;;;;18.10;6.38;;;;;;;;;;5068752;28;20056;-81
2023/08/02 01:54:14;;;;;;;17.13;6.57;;;;;;;;;;5067966;28;20489;-82
2023/08/02 01:56:40;;;;;;;15.85;6.25;;;;;;;;;;5052171;28;20131;-80
2023/08/02 01:59:06;;;;;;;17.00;6.60;;;;;;;;;;5069124;28;20052;-80
2023/08/02 02:01:32;;;;;;;16.15;6.63;;;;;;;;;;5069180;28;20472;-80
2023/08/02 02:03:58;;;;;;;11.10;5.85;;;;;;;;;;5069507;28;20051;-80
2023/08/02 02:06:24;;;;;;;26.20;6.07;;;;;;;;;;5062902;28;20076;-79
2023/08/02 02:08:51;;;;;;;22.10;7.07;;;;;;;;;;5068192;28;20549;-79
2023/08/02 02:11:17;;;;;;;14.95;6.05;;;;;;;;;;5067086;28;20052;-79
2023/08/02 02:13:43;;;;;;;16.98;6.15;;;;;;;;;;5051104;28;20056;-79
2023/08/02 02:16:09;;;;;;;14.38;5.82;;;;;;;;;;5068156;28;20078;-78
2023/08/02 02:18:35;;;;;;;18.50;5.68;;;;;;;;;;5067310;28;20040;-79
2023/08/02 02:21:01;;;;;;;14.95;5.68;;;;;;;;;;5050962;28;20094;-80
2023/08/02 02:23:27;;;;;;;17.58;6.25;;;;;;;;;;5050817;28;20888;-82
2023/08/02 02:25:53;;;;;;;14.25;6.55;;;;;;;;;;5050844;28;20152;-76
2023/08/02 02:28:20;;;;;;;16.65;5.82;;;;;;;;;;5067790;28;20066;-82
2023/08/02 02:30:46;;;;;;;21.00;6.22;;;;;;;;;;5050127;28;20100;-80
2023/08/02 02:33:12;;;;;;;12.75;6.00;;;;;;;;;;5050646;28;20079;-81
2023/08/02 02:35:38;;;;;;;19.60;6.00;;;;;;;;;;5049558;28;20058;-82
2023/08/02 02:38:04;;;;;;;17.13;5.60;;;;;;;;;;5051206;28;20054;-81
2023/08/02 02:40:30;;;;;;;27.42;5.80;;;;;;;;;;5048117;28;20601;-82
2023/08/02 02:42:57;;;;;;;14.52;6.18;;;;;;;;;;5050414;28;20055;-83
2023/08/02 02:45:23;;;;;;;20.27;6.43;;;;;;;;;;5050584;28;20110;-83
2023/08/02 02:47:49;;;;;;;25.80;6.68;;;;;;;;;;5067865;28;20103;-81
2023/08/02 02:50:15;;;;;;;17.58;7.13;;;;;;;;;;5049876;28;20063;-79
2023/08/02 02:52:41;;;;;;;20.30;6.10;;;;;;;;;;5050794;28;20135;-86
2023/08/02 02:55:09;;;;;;;19.85;6.18;;;;;;;;;;5063732;28;20106;-82
2023/08/02 02:57:35;;;;;;;22.98;6.10;;;;;;;;;;5064485;28;20047;-81
2023/08/02 03:00:02;;;;;;;16.02;6.13;;;;;;;;;;5047230;28;20040;-81
2023/08/02 03:02:29;;;;;;;22.38;7.63;;;;;;;;;;5045490;28;20048;-84
2023/08/02 03:04:55;;;;;;;19.88;6.60;;;;;;;;;;5042764;28;20040;-82
2023/08/02 03:07:21;;;;;;;17.85;6.60;;;;;;;;;;5043945;28;20105;-81
2023/08/02 03:09:47;;;;;;;26.02;7.40;;;;;;;;;;5047707;28;20109;-81
2023/08/02 03:12:13;;;;;;;26.25;7.75;;;;;;;;;;5047384;28;20466;-83
2023/08/02 03:14:40;;;;;;;21.13;7.35;;;;;;;;;;5047849;28;20151;-82
2023/08/02 03:17:06;;;;;;;21.25;7.18;;;;;;;;;;5048288;28;20047;-82
2023/08/02 03:19:32;;;;;;;22.30;6.43;;;;;;;;;;5044954;28;20074;-82
2023/08/02 03:21:58;;;;;;;27.90;7.13;;;;;;;;;;5065502;28;20048;-84
2023/08/02 03:24:24;;;;;;;18.67;6.75;;;;;;;;;;5064805;28;20056;-82
2023/08/02 03:26:50;;;;;;;20.80;6.88;;;;;;;;;;5061313;28;20109;-81
2023/08/02 03:29:16;;;;;;;23.25;6.88;;;;;;;;;;5048802;28;20084;-81
2023/08/02 03:31:43;;;;;;;16.80;6.85;;;;;;;;;;5047904;28;20058;-78
2023/08/02 03:34:09;;;;;;;22.70;6.90;;;;;;;;;;5048471;28;20051;-78
2023/08/02 03:36:36;;;;;;;22.10;7.43;;;;;;;;;;5064623;28;20160;-82
2023/08/02 03:39:02;;;;;;;24.05;8.27;;;;;;;;;;5064101;28;20052;-83
2023/08/02 03:41:28;;;;;;;23.67;7.05;;;;;;;;;;5045468;28;20045;-80
2023/08/02 03:43:56;;;;;;;21.38;7.28;;;;;;;;;;5064316;28;20063;-86
2023/08/02 03:46:22;;;;;;;19.15;6.15;;;;;;;;;;5065057;28;20058;-84
2023/08/02 03:48:48;;;;;;;22.02;6.88;;;;;;;;;;5060306;28;20075;-80
2023/08/02 03:51:14;;;;;;;18.15;6.55;;;;;;;;;;5048533;28;20135;-81
2023/08/02 03:53:40;;;;;;;23.55;7.60;;;;;;;;;;5063474;28;20452;-79
2023/08/02 03:56:06;;;;;;;14.77;7.38;;;;;;;;;;5046769;28;20065;-78
2023/08/02 03:58:33;;;;;;;21.95;7.25;;;;;;;;;;5047716;28;20052;-85
2023/08/02 04:00:59;;;;;;;14.40;6.65;;;;;;;;;;5063544;28;20117;-86
2023/08/02 04:03:25;;;;;;;19.67;7.05;;;;;;;;;;5064864;28;20047;-81
2023/08/02 04:05:51;;;;;;;20.40;7.90;;;;;;;;;;5047941;28;20051;-83
2023/08/02 04:08:17;;;;;;;18.83;7.55;;;;;;;;;;5047260;28;20044;-77
2023/08/02 04:10:43;;;;;;;23.52;6.88;;;;;;;;;;5046766;28;20078;-77
2023/08/02 04:13:09;;;;;;;23.67;8.23;;;;;;;;;;5047316;28;20130;-82
2023/08/02 04:15:36;;;;;;;23.40;7.30;;;;;;;;;;5062997;28;20078;-77
2023/08/02 04:18:02;;;;;;;27.80;8.55;;;;;;;;;;5056635;28;20493;-86
2023/08/02 04:20:29;;;;;;;27.63;8.70;;;;;;;;;;5062157;28;20047;-85
2023/08/02 04:22:55;;;;;;;18.60;7.25;;;;;;;;;;5046389;28;20139;-80
2023/08/02 04:25:21;;;;;;;22.25;8.38;;;;;;;;;;5060367;28;20059;-79
2023/08/02 04:27:47;;;;;;;19.23;7.75;;;;;;;;;;5045346;28;20105;-77
2023/08/02 04:30:13;;;;;;;19.77;7.75;;;;;;;;;;5061300;28;20083;-82
2023/08/02 04:32:39;;;;;;;27.35;8.77;;;;;;;;;;5062190;28;20047;-80
2023/08/02 04:35:06;;;;;;;18.35;7.70;;;;;;;;;;5045522;28;20050;-78
2023/08/02 04:37:32;;;;;;;14.30;6.80;;;;;;;;;;5061396;28;20564;-89
2023/08/02 04:39:58;;;;;;;18.60;6.68;;;;;;;;;;5062452;28;20058;-82
2023/08/02 04:42:26;;;;;;;15.65;7.18;;;;;;;;;;5042573;28;20385;-81
2023/08/02 04:44:52;;;;;;;22.00;8.57;;;;;;;;;;5045066;28;20083;-79
2023/08/02 04:47:18;;;;;;;16.67;7.38;;;;;;;;;;5061580;28;20044;-79
2023/08/02 04:49:44;;;;;;;15.40;7.60;;;;;;;;;;5061483;28;20672;-78
2023/08/02 04:52:10;;;;;;;18.27;7.57;;;;;;;;;;5045021;28;20052;-80
2023/08/02 04:54:36;;;;;;;19.73;8.02;;;;;;;;;;5042594;28;20048;-84
2023/08/02 04:57:02;;;;;;;21.42;7.85;;;;;;;;;;5056656;28;20048;-78
2023/08/02 04:59:28;;;;;;;15.45;7.55;;;;;;;;;;5060697;28;20101;-76
2023/08/02 05:01:55;;;;;;;21.30;7.50;;;;;;;;;;5045489;28;20075;-81
2023/08/02 05:04:21;;;;;;;16.67;7.75;;;;;;;;;;5043586;28;20079;-80
2023/08/02 05:06:47;;;;;;;19.02;7.20;;;;;;;;;;5061216;28;20048;-74
2023/08/02 05:09:13;;;;;;;19.02;7.10;;;;;;;;;;5060641;28;20052;-76
2023/08/02 05:11:40;;;;;;;16.85;7.97;;;14.20;99.90;;;;;;5060451;28;20044;-77
2023/08/02 05:14:06;;;;;;;16.80;8.48;;;;;;;;;;5061064;28;20058;-83
2023/08/02 05:16:32;;;;;;;18.92;7.70;;;;;;;;;;5061255;28;20182;-78
2023/08/02 05:18:58;;;;;;;17.60;7.78;;;;;;;;;;5061072;28;20039;-79
2023/08/02 05:21:25;;;;;;;16.38;7.47;;;;;;;;;;5057695;28;20059;-79
2023/08/02 05:23:51;;;;;;;18.42;7.55;;;;;;;;;;5044407;28;20044;-78
2023/08/02 05:26:17;;;;;;;17.65;7.55;;;;;;;;;;5060757;28;20591;-77
2023/08/02 05:28:43;;;;;;;16.80;7.82;;;;;;;;;;5060524;28;20498;-77
2023/08/02 05:31:11;;;;;;;14.23;7.35;;;14.70;99.90;;;;;;5044127;28;20143;-80
2023/08/02 05:33:37;;;;;;;17.02;7.85;;;;;;;;;;5060913;28;20456;-77
2023/08/02 05:36:03;;;;;;;19.52;8.30;;;;;;;;;;5061888;28;20052;-80
2023/08/02 05:38:32;;;;;;;16.58;7.35;;;;;;;;;;5044577;28;20051;-80
2023/08/02 05:41:02;;;;;;;14.65;7.25;;;;;;;;;;5059932;28;20055;-83
2023/08/02 05:43:28;;;;;;;15.85;7.05;;;;;;;;;;5057124;28;20052;-75
2023/08/02 05:45:55;;;;;;;16.50;7.15;;;;;;;;;;5058720;28;20131;-79
2023/08/02 05:48:21;;;;;;;18.63;7.35;;;;;;;;;;5057830;28;20052;-81
2023/08/02 05:50:47;;;;;;;17.85;7.60;;;;;;;;;;5058012;28;20052;-77
2023/08/02 05:53:13;;;;;;;12.82;5.85;;;;;;;;;;5053246;28;20524;-83
2023/08/02 05:55:39;;;;;;;12.82;6.65;;;;;;;;;;5055070;28;20055;-84
2023/08/02 05:58:05;;;;;;;13.32;6.15;;;;;;;;;;5054840;28;20149;-79
2023/08/02 06:00:31;;;;;;;11.38;5.57;;;;;;;;;;5052212;28;20044;-80
2023/08/02 06:03:00;;;;;;;12.95;5.68;;;;;;;;;;5054151;28;20133;-86
2023/08/02 06:05:26;;;;;;;12.40;5.03;;;;;;;;;;5039448;28;20071;-78
2023/08/02 06:07:52;;;;;;;9.07;4.78;;;;;;;;;;5056652;28;20060;-78
2023/08/02 06:10:18;;;;;;;9.77;4.95;;;;;;;;;;5053989;28;20778;-76
2023/08/02 06:12:44;;;;;;;7.30;3.80;;;;;;;;;;5053135;28;20135;-77
2023/08/02 06:15:11;;;;;;;10.18;3.95;;;;;;;;;;5057886;28;20075;-80
2023/08/02 06:17:37;;;;;;;10.18;4.43;;;;;;;;;;5055209;28;20067;-78
2023/08/02 06:20:03;;;;;;;9.77;4.15;;;;;;;;;;5052605;28;20048;-77
2023/08/02 06:22:29;;;;;;;12.52;4.82;;;;;;;;;;5056769;28;20135;-77
2023/08/02 06:24:55;;;;;;;7.18;3.72;;;;;;;;;;5053329;28;20557;-77
2023/08/02 06:27:21;;;;;;;7.30;3.22;;;;;;;;;;5074984;28;20599;-75
2023/08/02 06:29:47;;;;;;;13.20;4.28;;;;;;;;;;5053295;28;20099;-75
2023/08/02 06:32:13;;;;;;;9.20;4.05;;;;;;;;;;5053823;28;20811;-79
2023/08/02 06:34:40;;;;;;;8.65;3.95;;;;;;;;;;5060273;28;20052;-74
2023/08/02 06:37:06;;;;;;;7.43;3.45;;;;;;;;;;5060318;28;20044;-80
2023/08/02 06:39:33;;;;;;;9.15;3.85;;;;;;;;;;5037876;28;20592;-76
2023/08/02 06:41:59;;;;;;;12.00;4.72;;;;;;;;;;5054024;28;20044;-78
2023/08/02 06:44:25;;;;;;;10.88;4.32;;;;;;;;;;5060040;28;20056;-78
2023/08/02 06:46:51;;;;;;;10.82;4.22;;;;;;;;;;5056928;28;20036;-74
2023/08/02 06:49:17;;;;;;;7.43;3.45;;;;;;;;;;5058269;28;20048;-74
2023/08/02 06:51:43;;;;;;;8.30;3.58;;;;;;;;;;5058672;28;20498;-79
2023/08/02 06:54:12;;;;;;;6.95;3.22;;;;;;;;;;5055178;28;20052;-76
2023/08/02 06:56:38;;;;;;;8.70;3.63;;;;;;;;;;5056366;28;20520;-77
2023/08/02 06:59:04;;;;;;;6.25;2.80;;;;;;;;;;5059871;28;20044;-77
2023/08/02 07:01:30;;;;;;;10.50;4.38;;;;;;;;;;5052267;28;20409;-85
2023/08/02 07:03:56;;;;;;;8.68;3.42;;;;;;;;;;5057993;28;20719;-78
2023/08/02 07:06:22;;;;;;;11.85;3.35;;;;;;;;;;5054248;28;20061;-76
2023/08/02 07:08:49;;;;;;;9.88;3.50;;;;;;;;;;5049809;28;20602;-75
2023/08/02 07:11:15;;;;;;;8.73;2.83;;;;;;;;;;5058093;28;20572;-77
2023/08/02 07:13:45;;;;;;;8.88;3.40;;;18.10;99.90;;;;;;5042187;28;20095;-77
2023/08/02 07:16:11;;;;;;;7.18;3.00;;;;;;;;;;5056764;28;20075;-78
2023/08/02 07:18:38;;;;;;;12.10;3.28;;;;;;;;;;5062489;28;20052;-83
2023/08/02 07:21:08;;;;;;;7.13;3.20;;;;;;;;;;5040147;28;20044;-77
2023/08/02 07:23:34;;;;;;;6.68;2.60;;;;;;;;;;5042699;28;20141;-79
2023/08/02 07:26:00;;;;;;;7.38;2.40;;;;;;;;;;5011135;28;21536;-76
2023/08/02 07:28:26;;;;;;;9.32;2.90;;;;;;;;;;5011574;28;20765;-78
2023/08/02 07:30:53;;;;;;;9.35;3.00;;;;;;;;;;5010544;28;20170;-78
2023/08/02 07:33:19;;;;;;;7.70;2.70;;;;;;;;;;5016031;28;20054;-82
2023/08/02 07:35:48;;;;;;;6.20;2.13;;;;;;;;;;5002491;28;20044;-86
2023/08/02 07:38:14;;;;;;;11.63;2.63;;;;;;;;;;4999604;28;20056;-81
2023/08/02 07:40:43;;;;;;;9.07;2.55;;;;;;;;;;4999290;28;20056;-80
2023/08/02 07:43:09;;;;;;;8.57;2.95;;;;;;;;;;5006249;28;20084;-86
2023/08/02 07:45:36;;;;;;;7.20;2.22;;;;;;;;;;4990179;28;20055;-81
2023/08/02 07:48:02;;;;;;;8.55;2.78;;;;;;;;;;5012476;28;21007;-81
2023/08/02 07:50:28;;;;;;;6.10;2.70;;;;;;;;;;5017188;28;20056;-79
2023/08/02 07:52:54;;;;;;;6.85;3.13;;;;;;;;;;5015046;28;20115;-76
2023/08/02 07:55:20;;;;;;;11.82;3.20;;;;;;;;;;5011065;28;20048;-80
2023/08/02 07:57:47;;;;;;;8.23;3.40;;;;;;;;;;5012526;28;20048;-81
2023/08/02 08:00:13;;;;;;;9.88;3.00;;;;;;;;;;5009306;28;20057;-83
2023/08/02 08:02:39;;;;;;;10.85;3.55;;;;;;;;;;5014340;28;20063;-79
2023/08/02 08:05:07;;;;;;;7.18;2.78;;;;;;;;;;4996087;28;20926;-77
2023/08/02 08:07:33;;;;;;;9.60;3.30;;;;;;;;;;5003804;28;20069;-81
2023/08/02 08:09:59;;;;;;;6.75;2.28;;;;;;;;;;5013401;28;20065;-84
2023/08/02 08:12:25;;;;;;;9.25;2.60;;;;;;;;;;4992525;28;20725;-78
2023/08/02 08:14:52;;;;;;;9.93;2.78;;;;;;;;;;5013631;28;20421;-81
2023/08/02 08:17:18;;;;;;;12.40;3.30;;;;;;;;;;5001044;28;20118;-88
2023/08/02 08:19:44;;;;;;;14.15;2.70;;;;;;;;;;5011464;28;21059;-85
2023/08/02 08:22:11;;;;;;;11.23;3.55;;;;;;;;;;5029053;28;20057;-83
2023/08/02 08:24:37;;;;;;;9.55;3.67;;;;;;;;;;5009609;28;20475;-85
2023/08/02 08:27:03;;;;;;;16.38;3.70;;;;;;;;;;5004187;28;20053;-87
2023/08/02 08:29:29;;;;;;;16.85;3.83;;;;;;;;;;4975124;28;20155;-82
2023/08/02 08:31:56;;;;;;;13.50;5.07;;;;;;;;;;4992165;28;20068;-82
2023/08/02 08:34:22;;;;;;;16.35;3.72;;;;;;;;;;5000778;28;20140;-86
2023/08/02 08:36:48;;;;;;;23.55;4.32;;;;;;;;;;4997382;28;20142;-85
2023/08/02 08:39:15;;;;;;;16.23;3.88;;;;;;;;;;4984909;28;20653;-86
2023/08/02 08:41:41;;;;;;;12.98;4.68;;;;;;;;;;4997988;28;20591;-84
2023/08/02 08:44:07;;;;;;;12.38;3.85;;;;;;;;;;4998525;28;20143;-84
2023/08/02 08:46:34;;;;;;;17.25;6.50;;;;;;;;;;5002870;28;20056;-80
2023/08/02 08:49:01;;;;;;;11.43;4.57;;;;;;;;;;4971469;28;20114;-89
2023/08/02 08:51:27;;;;;;;22.38;5.93;;;;;;;;;;4992131;28;20057;-86
2023/08/02 08:53:54;;;;;;;14.23;4.72;;;;;;;;;;4993314;28;20052;-79
2023/08/02 08:56:27;;;;;;;9.18;4.40;;;14.50;99.90;;;;;;4977203;28;20045;-81
2023/08/02 08:58:53;;;;;;;;;;;;;;;;;;4991136;28;20737;-83
2023/08/02 09:01:19;;;;;;;23.13;5.38;;;;;;;;;;4996296;28;20779;-83
2023/08/02 09:03:46;;;;;;;15.98;5.72;;;;;;;;;;4996551;28;20139;-84
2023/08/02 09:06:14;;;;;;;16.40;7.88;;;;;;;;;;4975949;28;20049;-85
2023/08/02 09:08:44;;;;;;;15.80;5.85;;;;;;;;;;4963398;28;20125;-89
2023/08/02 09:11:10;;;;;;;23.15;7.45;;;;;;;;;;4985029;28;20061;-83
2023/08/02 09:13:36;;;;;;;18.70;7.45;;;;;;;;;;4989254;28;20055;-82
2023/08/02 09:16:06;;;;;;;19.95;7.75;;;15.10;99.90;;;;;;4990407;28;20170;-86
2023/08/02 09:18:40;;;;;;;17.83;7.82;;;;;;;;;;4989264;28;20053;-83
2023/08/02 09:21:07;;;;;;;18.95;8.55;;;;;;;;;;4973365;28;20148;-87
2023/08/02 09:23:33;;;;;;;18.23;8.48;;;;;;;;;;4991257;28;20063;-84
2023/08/02 09:26:19;;;;;;;25.67;8.75;;;;;;;;;;4985477;28;20083;-85
2023/08/02 09:29:01;;;;;;;30.98;10.57;;;;;;;;;;4999797;28;20084;-86
2023/08/02 09:31:31;;;;;;;20.13;9.65;;;;;;;;;;4976422;28;20060;-85
2023/08/02 09:33:58;;;;;;;30.45;10.07;;;;;;;;;;4996832;28;20056;-85
2023/08/02 09:36:28;;;;;;;21.38;8.35;;;14.90;99.90;;;;;;5010197;28;20053;-86
2023/08/02 09:39:11;;;;;;;32.25;10.02;;;15.00;99.90;;;;;;5004873;28;20053;-82
2023/08/02 09:41:37;;;;;;;18.83;8.80;;;;;;;;;;5020223;28;20053;-79
2023/08/02 09:44:03;;;;;;;27.77;10.23;;;;;;;;;;5041319;28;20060;-81
2023/08/02 09:46:30;;;;;;;41.70;11.02;;;;;;;;;;5029498;28;20048;-83
2023/08/02 09:48:57;;;;;;;24.55;10.63;;;;;;;;;;5045541;28;20048;-81
2023/08/02 09:51:38;;;;;;;26.95;12.10;;;;;;;;;;5045452;28;20044;-84
2023/08/02 09:54:04;;;;;;;18.48;10.05;;;;;;;;;;5042901;28;20051;-84
2023/08/02 09:56:31;;;;;;;21.17;9.82;;;;;;;;;;5043332;28;20094;-81
2023/08/02 09:58:58;;;;;;;24.67;9.38;;;;;;;;;;5040599;28;20048;-81
2023/08/02 10:01:25;;;;;;;22.42;10.25;;;;;;;;;;5040383;28;20064;-79
2023/08/02 10:03:57;;;;;;;26.00;10.75;;;;;;;;;;5044581;28;20076;-87
2023/08/02 10:06:29;;;;;;;23.38;9.88;;;;;;;;;;5045877;28;20052;-83
2023/08/02 10:09:00;;;;;;;21.58;8.63;;;;;;;;;;5043360;28;20048;-85
2023/08/02 10:11:27;;;;;;;17.65;9.45;;;;;;;;;;5047601;28;20049;-86
2023/08/02 10:13:54;;;;;;;16.35;8.85;;;;;;;;;;5047425;28;20128;-86
2023/08/02 10:16:23;;;;;;;15.18;7.85;;;16.10;99.90;;;;;;5046716;28;20056;-78
2023/08/02 10:18:52;;;;;;;15.07;8.85;;;;;;;;;;5040971;28;20482;-89
2023/08/02 10:21:19;;;;;;;16.42;7.30;;;;;;;;;;4694994;28;10000277;-83
2023/08/02 10:23:45;;;;;;;14.95;7.38;;;;;;;;;;5045807;28;20048;-84
2023/08/02 10:26:12;;;;;;;13.00;6.82;;;;;;;;;;5041574;28;20133;-86
2023/08/02 10:28:39;;;;;;;17.35;7.55;;;;;;;;;;5045856;28;20067;-80
2023/08/02 10:31:08;;;;;;;19.58;7.00;;;;;;;;;;5044078;28;20040;-84
2023/08/02 10:33:34;;;;;;;11.02;5.93;;;;;;;;;;5043507;28;20742;-85
2023/08/02 10:36:04;;;;;;;10.32;5.68;;;;;;;;;;5042768;28;20044;-86
2023/08/02 10:38:41;;;;;;;12.15;6.70;;;;;;;;;;5049232;28;20193;-87
2023/08/02 10:41:10;;;;;;;10.45;4.72;;;;;;;;;;5040116;28;20053;-89
2023/08/02 10:43:52;;;;;;;14.25;4.75;;;;;;;;;;5042873;28;20552;-84
2023/08/02 10:46:18;;;;;;;;;;;;;;;;;;5036201;28;20037;-87
2023/08/02 10:48:45;;;;;;;11.68;4.35;;;;;;;;;;5054240;28;19933;-87
2023/08/02 10:51:30;;;;;;;8.88;4.13;;;;;;;;;;5042030;28;20036;-84
2023/08/02 10:54:15;;;;;;;11.80;5.03;;;;;;;;;;5042348;28;20106;-86
2023/08/02 10:56:55;;;;;;;5.32;3.10;;;;;;;;;;5041665;28;20045;-83
2023/08/02 10:59:25;;;;;;;8.95;3.40;;;;;;;;;;5033952;28;20059;-85
2023/08/02 11:02:07;;;;;;;8.18;3.97;;;;;;;;;;5022524;28;20139;-86
2023/08/02 11:04:37;;;;;;;10.27;3.70;;;;;;;;;;5021159;28;20135;-84
2023/08/02 11:07:13;;;;;;;7.55;3.05;;;;;;;;;;5041379;28;20056;-77
2023/08/02 11:09:39;;;;;;;6.13;2.83;;;;;;;;;;5043022;28;20141;-83
2023/08/02 11:12:10;;;;;;;5.28;2.80;;;;;;;;;;5038972;28;20062;-78
2023/08/02 11:14:36;;;;;;;6.40;2.58;;;;;;;;;;5040790;28;20049;-79
2023/08/02 11:17:02;;;;;;;8.40;2.72;;;;;;;;;;5033207;28;20045;-86
2023/08/02 11:19:29;;;;;;;4.13;1.85;;;;;;;;;;5022575;28;20049;-82
2023/08/02 11:21:56;;;;;;;5.43;2.50;;;17.40;99.90;;;;;;5040071;28;20796;-86
2023/08/02 11:24:24;;;;;;;3.30;2.17;;;;;;;;;;5014327;28;20625;-79
2023/08/02 11:26:59;;;;;;;2.95;1.75;;;;;;;;;;5039760;28;20044;-87
2023/08/02 11:29:26;;;;;;;4.20;1.90;;;;;;;;;;5041545;28;20040;-81
2023/08/02 11:31:55;;;;;;;3.40;1.52;;;;;;;;;;5040894;28;20541;-86
2023/08/02 11:34:23;;;;;;;3.70;1.40;;;;;;;;;;5041825;28;20366;-84
2023/08/02 11:36:49;;;;;;;4.45;1.65;;;;;;;;;;5039542;28;20113;-82
2023/08/02 11:39:16;;;;;;;2.28;1.40;;;;;;;;;;5038747;28;20059;-82
2023/08/02 11:41:42;;;;;;;3.53;1.58;;;;;;;;;;5037397;28;20051;-85
2023/08/02 11:44:15;;;;;;;3.72;1.58;;;;;;;;;;5040449;28;20092;-81
2023/08/02 11:46:42;;;;;;;4.28;1.60;;;;;;;;;;5055065;28;20113;-81
2023/08/02 11:49:08;;;;;;;2.63;1.42;;;;;;;;;;5037582;28;20104;-82
2023/08/02 11:51:39;;;;;;;4.20;1.30;;;;;;;;;;5043311;28;20076;-81
2023/08/02 11:54:06;;;;;;;2.83;1.42;;;;;;;;;;5038476;28;20052;-86
2023/08/02 11:56:32;;;;;;;2.90;1.25;;;;;;;;;;5037342;28;20047;-88
2023/08/02 11:58:58;;;;;;;3.25;1.33;;;;;;;;;;5038979;28;20056;-83
2023/08/02 12:01:24;;;;;;;4.68;1.70;;;;;;;;;;5022834;28;20052;-81
2023/08/02 12:04:03;;;;;;;4.35;1.77;;;;;;;;;;5035468;28;20040;-83
2023/08/02 12:06:44;;;;;;;4.35;2.50;;;;;;;;;;5036466;28;20479;-86
2023/08/02 12:09:10;;;;;;;3.90;2.63;;;;;;;;;;5038944;28;20456;-81
2023/08/02 12:11:36;;;;;;;4.05;2.92;;;;;;;;;;5038855;28;20051;-85
2023/08/02 12:14:02;;;;;;;4.45;3.35;;;;;;;;;;5039586;28;20513;-83
2023/08/02 12:16:39;;;;;;;4.03;3.28;;;;;;;;;;5022384;28;20100;-82
2023/08/02 12:19:05;;;;;;;3.97;3.58;;;;;;;;;;5041047;28;20066;-83
2023/08/02 12:21:31;;;;;;;8.32;3.60;;;;;;;;;;5039799;28;20041;-89
2023/08/02 12:23:57;;;;;;;3.13;2.40;;;;;;;;;;5037290;28;20642;-86
2023/08/02 12:26:28;;;;;;;5.30;2.83;;;;;;;;;;5033666;28;20128;-79
2023/08/02 12:28:54;;;;;;;3.10;2.43;;;;;;;;;;5038660;28;20383;-87
2023/08/02 12:31:20;;;;;;;2.70;2.22;;;;;;;;;;5023936;28;20064;-85
2023/08/02 12:33:48;;;;;;;3.20;2.50;;;;;;;;;;5033920;28;20051;-85
2023/08/02 12:36:27;;;;;;;3.25;1.80;;;;;;;;;;5036219;28;20063;-84
2023/08/02 12:38:55;;;;;;;4.05;2.30;;;18.80;99.90;;;;;;5041010;28;20063;-84
2023/08/02 12:41:21;;;;;;;5.05;2.65;;;;;;;;;;5024495;28;20690;-84
2023/08/02 12:43:47;;;;;;;4.43;1.88;;;;;;;;;;5041576;28;20052;-82
2023/08/02 12:46:14;;;;;;;3.15;2.42;;;;;;;;;;5042697;28;20040;-85
2023/08/02 12:48:40;;;;;;;2.65;1.83;;;;;;;;;;5038076;28;20814;-79
2023/08/02 12:51:06;;;;;;;2.67;2.20;;;;;;;;;;5041849;28;20048;-84
2023/08/02 12:53:32;;;;;;;3.33;2.33;;;;;;;;;;5047221;28;20078;-84
2023/08/02 12:55:58;;;;;;;5.35;3.33;;;;;;;;;;5043733;28;20105;-85
2023/08/02 12:58:24;;;;;;;2.92;2.38;;;;;;;;;;5026161;28;20189;-84
2023/08/02 13:00:52;;;;;;;3.03;2.63;;;;;;;;;;5041519;28;20055;-83
2023/08/02 13:03:19;;;;;;;4.25;3.33;;;;;;;;;;5037254;28;20052;-84
2023/08/02 13:05:45;;;;;;;4.18;3.75;;;;;;;;;;5025804;28;20045;-82
2023/08/02 13:08:13;;;;;;;4.97;3.17;;;;;;;;;;5041100;28;20048;-84
2023/08/02 13:10:39;;;;;;;5.32;4.00;;;;;;;;;;5035581;28;20347;-83
2023/08/02 13:13:06;;;;;;;4.13;3.72;;;;;;;;;;5037566;28;20041;-85
2023/08/02 13:15:32;;;;;;;3.92;2.58;;;;;;;;;;5036085;28;20052;-79
2023/08/02 13:17:58;;;;;;;3.63;2.47;;;;;;;;;;5023491;28;20048;-77
2023/08/02 13:20:24;;;;;;;4.00;3.50;;;;;;;;;;5033996;28;20059;-81
2023/08/02 13:22:50;;;;;;;5.32;3.00;;;;;;;;;;5029004;28;20725;-83
2023/08/02 13:25:18;;;;;;;3.45;3.10;;;;;;;;;;5035788;28;20058;-77
2023/08/02 13:27:44;;;;;;;3.97;3.50;;;;;;;;;;5034599;28;20111;-81
2023/08/02 13:30:11;;;;;;;5.60;3.63;;;;;;;;;;5039615;28;20048;-79
2023/08/02 13:32:37;;;;;;;3.90;3.40;;;;;;;;;;5038620;28;20490;-76
2023/08/02 13:35:07;;;;;;;3.60;3.28;;;;;;;;;;5039074;28;20074;-81
2023/08/02 13:37:34;;;;;;;4.82;3.88;;;;;;;;;;5038213;28;20127;-78
2023/08/02 13:40:01;;;;;;;2.78;2.58;;;;;;;;;;5021254;28;20051;-79
2023/08/02 13:42:28;;;;;;;3.40;3.10;;;;;;;;;;5029160;28;20163;-77
2023/08/02 13:44:55;;;;;;;3.72;3.00;;;20.10;99.90;;;;;;5034012;28;20071;-80
2023/08/02 13:47:21;;;;;;;3.00;2.63;;;;;;;;;;5030521;28;20952;-81
2023/08/02 13:49:47;;;;;;;5.75;4.55;;;;;;;;;;5037075;28;20494;-79
2023/08/02 13:52:13;;;;;;;3.30;2.67;;;;;;;;;;5038694;28;20123;-84
2023/08/02 13:54:39;;;;;;;3.10;2.78;;;;;;;;;;5037790;28;20055;-78
2023/08/02 13:57:06;;;;;;;3.63;2.88;;;;;;;;;;5037916;28;20056;-84
2023/08/02 13:59:32;;;;;;;4.05;3.13;;;;;;;;;;5035479;28;20124;-78
2023/08/02 14:01:58;;;;;;;3.45;3.15;;;;;;;;;;5035156;28;20049;-76
2023/08/02 14:04:25;;;;;;;6.80;4.47;;;;;;;;;;5038616;28;20098;-85
2023/08/02 14:06:52;;;;;;;4.82;4.10;;;;;;;;;;5038961;28;20036;-82
2023/08/02 14:09:20;;;;;;;5.97;0.73;;;;;;;;;;5037546;28;20045;-83
2023/08/02 14:11:46;;;;;;;53.25;3.22;;;;;;;;;;5040168;28;20060;-84
2023/08/02 14:14:12;;;;;;;8.60;1.80;;;;;;;;;;5019857;28;20144;-83
2023/08/02 14:16:38;;;;;;;9.25;2.72;;;;;;;;;;5036815;28;20072;-84
2023/08/02 14:19:04;;;;;;;7.18;3.20;;;;;;;;;;5034966;28;20385;-84
2023/08/02 14:21:30;;;;;;;3.97;1.88;;;;;;;;;;5033267;28;20145;-82
2023/08/02 14:23:57;;;;;;;6.40;4.70;;;;;;;;;;5032324;28;20037;-85
2023/08/02 14:26:24;;;;;;;8.32;4.55;;;;;;;;;;5051827;28;20760;-79
2023/08/02 14:28:50;;;;;;;12.02;7.25;;;;;;;;;;5035055;28;20052;-79